Terminal Aerodrome Forecast
Issued by NWS

Home | Current Version | Previous Version | Graphics & Text | Print | Product List | Glossary On
Versions: 1 2 3 4 5 6 7 8 9 10 11 12 13 14 15 16 17
000
FTUS42 KMHX 190500
TAFOAJ
TAF
KOAJ 190539Z 1906/2006 18005KT P6SM SCT050 BKN100
     FM190900 23003KT 4SM BR SCT005 SCT050
     FM191300 25006KT P6SM SCT040
     FM191900 25008KT P6SM VCTS BKN040CB
     FM200100 29004KT P6SM BKN040
      AMD LTD TO CLD VIS AND WIND=

USA.gov is the U.S. government's official web portal to all federal, state and local government web resources and services.